Time;durP1;ratioP1;P1;durP2;ratioP2;P2;SDS_P1;SDS_P2;PMS_P1;PMS_P2;Temp;Humidity;BMP_temperature;BMP_pressure;BME280_temperature;BME280_humidity;BME280_pressure;Samples;Min_cycle;Max_cycle;Signal;HPM_P1;HPM_P2
2023/08/21 00:01:06;;;;;;;;;;;;;;;23.98;58.60;102288.38;5063266;28;19919;-48
2023/08/21 00:03:31;;;;;;;;;;;;;;;23.99;58.68;102283.78;5063897;28;19955;-46
2023/08/21 00:05:56;;;;;;;;;;;;;;;23.98;58.69;102279.38;5062966;28;19917;-43
2023/08/21 00:08:21;;;;;;;;;;;;;;;23.97;58.76;102281.25;5064785;28;19920;-47
2023/08/21 00:10:47;;;;;;;;;;;;;;;23.99;58.79;102281.06;5067397;28;19943;-49
2023/08/21 00:13:12;;;;;;;;;;;;;;;23.99;58.76;102281.06;5067836;28;19917;-48
2023/08/21 00:15:38;;;;;;;;;;;;;;;23.97;58.75;102294.84;5066476;28;19967;-48
2023/08/21 00:18:03;;;;;;;;;;;;;;;23.97;58.78;102289.41;5067656;28;20007;-49
2023/08/21 00:20:28;;;;;;;;;;;;;;;23.97;58.83;102286.69;5066776;28;19928;-45
2023/08/21 00:22:53;;;;;;;;;;;;;;;23.97;58.61;102289.41;5067029;28;19924;-47
2023/08/21 00:25:20;;;;;;;;;;;;;;;23.96;58.58;102293.16;5066701;28;20015;-46
2023/08/21 00:27:45;;;;;;;;;;;;;;;23.97;58.67;102296.72;5067001;28;19921;-49
2023/08/21 00:30:11;;;;;;;;;;;;;;;23.97;58.86;102300.28;5067014;28;20019;-48
2023/08/21 00:32:36;;;;;;;;;;;;;;;23.97;58.69;102299.44;5067107;28;20289;-46
2023/08/21 00:35:02;;;;;;;;;;;;;;;23.96;58.69;102298.59;5066541;28;19917;-45
2023/08/21 00:37:27;;;;;;;;;;;;;;;23.95;58.63;102295.00;5066896;28;19912;-50
2023/08/21 00:39:52;;;;;;;;;;;;;;;23.95;58.67;102289.56;5067069;28;20338;-49
2023/08/21 00:42:17;;;;;;;;;;;;;;;23.95;58.68;102292.28;5066935;28;20707;-45
2023/08/21 00:44:42;;;;;;;;;;;;;;;23.96;58.44;102290.44;5066635;28;19913;-48
2023/08/21 00:47:07;;;;;;;;;;;;;;;23.94;58.51;102290.59;5066024;28;19928;-46
2023/08/21 00:49:33;;;;;;;;;;;;;;;23.95;58.49;102294.16;5066438;28;19924;-46
2023/08/21 00:51:58;;;;;;;;;;;;;;;23.95;58.31;102297.72;5066730;28;19952;-50
2023/08/21 00:54:23;;;;;;;;;;;;;;;23.95;58.49;102297.72;5098949;28;20038;-49
2023/08/21 00:56:50;;;;;;;;;;;;;;;23.95;58.48;102291.44;5065160;28;20400;-45
2023/08/21 00:59:15;;;;;;;;;;;;;;;23.95;58.43;102294.16;5066755;28;20050;-47
2023/08/21 01:01:41;;;;;;;;;;;;;;;23.94;58.60;102287.03;5066540;28;19912;-49
2023/08/21 01:04:06;;;;;;;;;;;;;;;23.93;58.54;102286.19;5066132;28;19920;-45
2023/08/21 01:06:31;;;;;;;;;;;;;;;23.93;58.56;102280.75;5066571;28;19935;-47
2023/08/21 01:09:26;;;;;;;;;;;;;;;23.94;58.47;102281.59;5066310;28;19917;-50
2023/08/21 01:11:54;;;;;;;;;;;;;;;23.92;58.40;102276.34;5065275;28;19936;-47
2023/08/21 01:14:31;;;;;;;;;;;;;;;23.93;58.37;102280.75;5066342;28;19925;-50
2023/08/21 01:16:57;;;;;;;;;;;;;;;23.93;58.32;102283.47;5065134;28;19912;-47
2023/08/21 01:19:28;;;;;;;;;;;;;;;23.93;58.39;102285.31;5065374;28;20332;-47
2023/08/21 01:21:54;;;;;;;;;;;;;;;23.91;58.35;102282.75;5065454;28;19916;-49
2023/08/21 01:24:19;;;;;;;;;;;;;;;23.93;58.23;102279.91;5097826;28;19935;-50
2023/08/21 01:26:44;;;;;;;;;;;;;;;23.92;58.25;102275.50;5065754;28;19920;-51
2023/08/21 01:29:10;;;;;;;;;;;;;;;23.93;58.29;102271.75;5066154;28;20002;-49
2023/08/21 01:31:36;;;;;;;;;;;;;;;23.91;58.26;102280.03;5065751;28;20007;-48
2023/08/21 01:34:04;;;;;;;;;;;;;;;23.92;58.26;102283.63;5062382;28;19917;-47
2023/08/21 01:36:29;;;;;;;;;;;;;;;23.91;58.39;102280.03;5063992;28;19959;-50
2023/08/21 01:38:54;;;;;;;;;;;;;;;23.92;58.22;102280.91;5097864;28;19921;-49
2023/08/21 01:41:19;;;;;;;;;;;;;;;23.91;58.22;102280.03;5064764;28;20007;-49
2023/08/21 01:43:45;;;;;;;;;;;;;;;23.90;58.25;102278.34;5064447;28;19913;-47
2023/08/21 01:46:10;;;;;;;;;;;;;;;23.91;58.13;102288.19;5064669;28;19928;-48
2023/08/21 01:48:35;;;;;;;;;;;;;;;23.91;58.13;102279.19;5065816;28;19928;-45
2023/08/21 01:51:01;;;;;;;;;;;;;;;23.90;58.00;102281.06;5065643;28;19967;-49
2023/08/21 01:53:26;;;;;;;;;;;;;;;23.90;58.04;102286.50;5063406;28;20302;-49
2023/08/21 01:55:51;;;;;;;;;;;;;;;23.90;58.08;102282.94;5065684;28;19923;-47
2023/08/21 01:58:16;;;;;;;;;;;;;;;23.89;58.09;102282.09;5065586;28;19912;-50
2023/08/21 02:00:42;;;;;;;;;;;;;;;23.89;58.11;102275.81;5065085;28;19912;-43
2023/08/21 02:03:07;;;;;;;;;;;;;;;23.89;58.00;102276.66;5063624;28;19917;-44
2023/08/21 02:05:36;;;;;;;;;;;;;;;23.89;58.15;102275.81;5064766;28;19921;-45
2023/08/21 02:08:02;;;;;;;;;;;;;;;23.88;58.04;102272.25;5065138;28;19913;-44
2023/08/21 02:10:27;;;;;;;;;;;;;;;23.88;57.85;102277.69;5064819;28;19913;-44
2023/08/21 02:12:53;;;;;;;;;;;;;;;23.89;57.88;102278.53;5065319;28;20334;-43
2023/08/21 02:15:21;;;;;;;;;;;;;;;23.88;57.89;102282.28;5063705;28;19956;-45
2023/08/21 02:17:47;;;;;;;;;;;;;;;23.88;58.07;102274.13;5064776;28;19951;-44
2023/08/21 02:20:12;;;;;;;;;;;;;;;23.88;57.91;102283.13;5064704;28;19912;-44
2023/08/21 02:22:37;;;;;;;;;;;;;;;23.88;57.94;102280.41;5065056;28;19928;-45
2023/08/21 02:25:02;;;;;;;;;;;;;;;23.86;57.93;102287.84;5064913;28;20449;-44
2023/08/21 02:27:28;;;;;;;;;;;;;;;23.87;57.70;102291.41;5063390;28;19924;-46
2023/08/21 02:29:53;;;;;;;;;;;;;;;23.86;57.95;102279.72;5064432;28;20366;-45
2023/08/21 02:32:18;;;;;;;;;;;;;;;23.86;57.90;102285.13;5064606;28;20357;-45
2023/08/21 02:34:43;;;;;;;;;;;;;;;23.86;58.08;102285.13;5064094;28;19921;-48
2023/08/21 02:37:08;;;;;;;;;;;;;;;23.86;57.83;102290.56;5063861;28;20095;-46
2023/08/21 02:39:34;;;;;;;;;;;;;;;23.86;57.74;102284.28;5064794;28;19912;-44
2023/08/21 02:41:59;;;;;;;;;;;;;;;23.86;57.63;102281.56;5064547;28;19940;-45
2023/08/21 02:44:24;;;;;;;;;;;;;;;23.86;57.92;102287.00;5064540;28;19956;-45
2023/08/21 02:46:49;;;;;;;;;;;;;;;23.86;57.90;102281.56;5064237;28;19940;-43
2023/08/21 02:49:14;;;;;;;;;;;;;;;23.86;57.87;102281.56;5064351;28;19952;-43
2023/08/21 02:51:40;;;;;;;;;;;;;;;23.57;57.75;102244.00;5062888;28;20062;-44
2023/08/21 02:54:05;;;;;;;;;;;;;;;23.84;57.90;102295.34;5064313;28;19971;-45
2023/08/21 02:56:30;;;;;;;;;;;;;;;23.85;57.53;102298.91;5064359;28;19917;-45
2023/08/21 02:58:55;;;;;;;;;;;;;;;23.84;57.69;102291.78;5096730;28;19913;-45
2023/08/21 03:01:20;;;;;;;;;;;;;;;23.85;57.68;102293.47;5063773;28;19920;-45
2023/08/21 03:03:46;;;;;;;;;;;;;;;23.84;57.70;102283.63;5064323;28;20311;-47
2023/08/21 03:06:11;;;;;;;;;;;;;;;23.84;57.67;102286.34;5063499;28;19943;-45
2023/08/21 03:08:36;;;;;;;;;;;;;;;23.83;57.59;102285.50;5064190;28;19939;-45
2023/08/21 03:11:01;;;;;;;;;;;;;;;23.83;57.45;102288.22;5064007;28;19912;-45
2023/08/21 03:13:27;;;;;;;;;;;;;;;23.82;57.67;102289.22;5064271;28;20068;-44
2023/08/21 03:15:52;;;;;;;;;;;;;;;23.82;57.61;102286.50;5063709;28;19917;-45
2023/08/21 03:18:17;;;;;;;;;;;;;;;23.83;57.57;102295.50;5096520;28;19913;-43
2023/08/21 03:20:46;;;;;;;;;;;;;;;23.81;57.64;102298.38;5063431;28;20011;-46
2023/08/21 03:23:12;;;;;;;;;;;;;;;23.81;57.40;102290.22;5063787;28;20336;-44
2023/08/21 03:25:37;;;;;;;;;;;;;;;23.81;57.49;102287.53;5063487;28;20000;-44
2023/08/21 03:28:02;;;;;;;;;;;;;;;23.81;57.74;102286.66;5063977;28;19974;-46
2023/08/21 03:30:27;;;;;;;;;;;;;;;23.80;57.59;102285.81;5063561;28;19923;-45
2023/08/21 03:32:53;;;;;;;;;;;;;;;23.80;57.62;102288.53;5063677;28;19920;-46
2023/08/21 03:35:18;;;;;;;;;;;;;;;23.80;57.59;102288.53;5063118;28;19975;-45
2023/08/21 03:37:43;;;;;;;;;;;;;;;23.79;57.49;102284.13;5063973;28;19971;-45
2023/08/21 03:40:09;;;;;;;;;;;;;;;23.79;57.47;102284.13;5063876;28;19962;-43
2023/08/21 03:42:34;;;;;;;;;;;;;;;23.79;57.43;102284.13;5065115;28;20258;-44
2023/08/21 03:44:59;;;;;;;;;;;;;;;23.79;57.38;102284.13;5070341;28;19924;-44
2023/08/21 03:47:24;;;;;;;;;;;;;;;23.79;57.45;102277.81;5070051;28;19920;-45
2023/08/21 03:49:49;;;;;;;;;;;;;;;23.67;57.34;102264.59;5069971;28;20389;-45
2023/08/21 03:52:15;;;;;;;;;;;;;;;23.78;57.43;102278.84;5070416;28;19913;-44
2023/08/21 03:54:40;;;;;;;;;;;;;;;23.78;57.42;102285.13;5070134;28;20455;-46
2023/08/21 03:57:05;;;;;;;;;;;;;;;23.78;57.37;102276.13;5070249;28;19913;-44
2023/08/21 03:59:30;;;;;;;;;;;;;;;23.77;57.55;102274.44;5070160;28;19941;-42
2023/08/21 04:01:55;;;;;;;;;;;;;;;23.77;57.38;102278.00;5070061;28;19980;-43
2023/08/21 04:04:21;;;;;;;;;;;;;;;23.77;57.51;102274.44;5069832;28;19989;-47
2023/08/21 04:06:46;;;;;;;;;;;;;;;23.76;57.34;102272.75;5069658;28;20385;-45
2023/08/21 04:09:11;;;;;;;;;;;;;;;23.75;57.35;102273.78;5070485;28;20384;-45
2023/08/21 04:11:36;;;;;;;;;;;;;;;23.75;57.34;102271.91;5069860;28;19916;-47
2023/08/21 04:14:02;;;;;;;;;;;;;;;23.75;57.23;102273.78;5070075;28;19928;-44
2023/08/21 04:16:28;;;;;;;;;;;;;;;23.75;57.51;102276.50;5069763;28;19912;-44
2023/08/21 04:18:53;;;;;;;;;;;;;;;23.75;57.22;102273.78;5070279;28;19935;-44
2023/08/21 04:21:18;;;;;;;;;;;;;;;23.73;57.20;102282.06;5069644;28;19920;-46
2023/08/21 04:23:44;;;;;;;;;;;;;;;23.75;57.48;102284.63;5069953;28;19931;-45
2023/08/21 04:26:09;;;;;;;;;;;;;;;23.74;57.32;102288.34;5068220;28;19921;-45
2023/08/21 04:28:35;;;;;;;;;;;;;;;23.73;57.15;102286.66;5070150;28;19913;-45
2023/08/21 04:31:06;;;;;;;;;;;;;;;23.73;57.10;102294.81;5068317;28;20225;-43
2023/08/21 04:33:31;;;;;;;;;;;;;;;23.72;57.38;102301.25;5075067;28;19943;-45
2023/08/21 04:35:56;;;;;;;;;;;;;;;23.72;57.06;102303.97;5069284;28;19925;-44
2023/08/21 04:38:21;;;;;;;;;;;;;;;23.71;57.26;102305.84;5069459;28;19916;-44
2023/08/21 04:40:47;;;;;;;;;;;;;;;23.71;57.29;102305.84;5069725;28;19916;-44
2023/08/21 04:43:12;;;;;;;;;;;;;;;23.71;57.26;102305.00;5070006;28;19913;-43
2023/08/21 04:45:37;;;;;;;;;;;;;;;23.71;57.28;102303.13;5069639;28;19988;-43
2023/08/21 04:48:04;;;;;;;;;;;;;;;23.69;57.41;102303.28;5068865;28;19948;-45
2023/08/21 04:50:29;;;;;;;;;;;;;;;23.71;57.16;102302.28;5069613;28;19920;-43
2023/08/21 04:52:54;;;;;;;;;;;;;;;23.69;57.32;102306.00;5069893;28;19921;-43
2023/08/21 04:55:20;;;;;;;;;;;;;;;23.69;57.20;102314.13;5065375;28;19932;-47
2023/08/21 04:57:45;;;;;;;;;;;;;;;23.67;57.20;102313.47;5064024;28;19939;-44
2023/08/21 05:00:11;;;;;;;;;;;;;;;23.68;57.24;102312.44;5079633;28;19917;-45
2023/08/21 05:02:36;;;;;;;;;;;;;;;23.68;57.22;102314.31;5066078;28;19920;-44
2023/08/21 05:05:01;;;;;;;;;;;;;;;23.67;57.21;102312.63;5064852;28;19948;-44
2023/08/21 05:07:27;;;;;;;;;;;;;;;23.67;57.24;102313.47;5061933;28;19966;-44
2023/08/21 05:09:52;;;;;;;;;;;;;;;23.67;57.30;102310.75;5064577;28;19917;-47
2023/08/21 05:12:17;;;;;;;;;;;;;;;23.67;57.45;102318.06;5066438;28;19913;-43
2023/08/21 05:14:42;;;;;;;;;;;;;;;23.67;57.21;102318.06;5065482;28;19917;-43
2023/08/21 05:17:08;;;;;;;;;;;;;;;23.67;57.45;102316.19;5065391;28;19951;-43
2023/08/21 05:19:33;;;;;;;;;;;;;;;23.68;57.39;102314.31;5065655;28;19932;-45
2023/08/21 05:21:58;;;;;;;;;;;;;;;23.67;57.65;102310.75;5065886;28;19924;-43
2023/08/21 05:24:23;;;;;;;;;;;;;;;23.67;57.53;102312.63;5066050;28;19921;-43
2023/08/21 05:26:48;;;;;;;;;;;;;;;23.67;57.49;102313.47;5065574;28;19917;-44
2023/08/21 05:29:14;;;;;;;;;;;;;;;23.67;57.64;102316.19;5066000;28;20285;-43
2023/08/21 05:31:39;;;;;;;;;;;;;;;23.67;57.69;102308.03;5065435;28;19916;-48
2023/08/21 05:34:04;;;;;;;;;;;;;;;23.38;57.76;102277.72;5065527;28;19917;-43
2023/08/21 05:36:29;;;;;;;;;;;;;;;23.68;57.81;102326.03;5064670;28;19936;-45
2023/08/21 05:38:56;;;;;;;;;;;;;;;23.67;57.77;102329.75;5065750;28;19917;-48
2023/08/21 05:41:21;;;;;;;;;;;;;;;23.68;57.80;102327.91;5065542;28;19978;-46
2023/08/21 05:43:47;;;;;;;;;;;;;;;23.68;58.02;102327.91;5065242;28;19987;-45
2023/08/21 05:46:12;;;;;;;;;;;;;;;23.67;57.71;102323.50;5064964;28;19927;-45
2023/08/21 05:48:37;;;;;;;;;;;;;;;23.68;57.96;102320.59;5097428;28;20019;-45
2023/08/21 05:51:03;;;;;;;;;;;;;;;23.68;57.81;102325.19;5065552;28;19952;-45
2023/08/21 05:53:28;;;;;;;;;;;;;;;23.69;57.82;102327.72;5065029;28;19905;-44
2023/08/21 05:55:53;;;;;;;;;;;;;;;23.67;58.02;102332.47;5064872;28;19924;-47
2023/08/21 05:58:19;;;;;;;;;;;;;;;23.67;57.94;102329.75;5065238;28;19913;-47
2023/08/21 06:00:44;;;;;;;;;;;;;;;23.68;58.05;102338.75;5065576;28;19936;-44
2023/08/21 06:03:09;;;;;;;;;;;;;;;23.68;58.11;102336.03;5064837;28;19917;-43
2023/08/21 06:05:34;;;;;;;;;;;;;;;23.68;57.99;102339.59;5063870;28;19917;-44
2023/08/21 06:08:00;;;;;;;;;;;;;;;23.67;57.96;102339.78;5065105;28;19948;-49
2023/08/21 06:10:25;;;;;;;;;;;;;;;23.68;57.96;102344.19;5064889;28;19913;-46
2023/08/21 06:12:51;;;;;;;;;;;;;;;23.68;58.26;102330.59;5064850;28;19939;-46
2023/08/21 06:15:16;;;;;;;;;;;;;;;23.67;57.95;102334.34;5064147;28;20457;-45
2023/08/21 06:17:42;;;;;;;;;;;;;;;23.67;58.06;102335.19;5064125;28;19920;-46
2023/08/21 06:20:08;;;;;;;;;;;;;;;23.68;57.92;102336.03;5055107;28;19917;-46
2023/08/21 06:22:34;;;;;;;;;;;;;;;23.67;57.92;102339.78;5084935;28;19940;-49
2023/08/21 06:24:59;;;;;;;;;;;;;;;23.68;58.11;102327.91;5094125;28;19927;-44
2023/08/21 06:27:24;;;;;;;;;;;;;;;23.66;58.04;102341.66;5061503;28;19913;-48
2023/08/21 06:29:49;;;;;;;;;;;;;;;23.67;58.15;102337.91;5059156;28;19942;-45
2023/08/21 06:32:15;;;;;;;;;;;;;;;23.67;58.15;102334.34;5060740;28;19913;-47
2023/08/21 06:34:40;;;;;;;;;;;;;;;23.67;58.02;102337.06;5062161;28;19925;-49
2023/08/21 06:37:05;;;;;;;;;;;;;;;23.66;58.00;102338.94;5061777;28;19913;-46
2023/08/21 06:39:30;;;;;;;;;;;;;;;23.65;58.17;102331.78;5062869;28;19917;-48
2023/08/21 06:41:55;;;;;;;;;;;;;;;23.66;58.06;102335.34;5061624;28;19913;-48
2023/08/21 06:44:21;;;;;;;;;;;;;;;23.66;57.96;102338.06;5059616;28;19917;-47
2023/08/21 06:46:46;;;;;;;;;;;;;;;23.65;58.06;102337.22;5058803;28;19935;-45
2023/08/21 06:49:11;;;;;;;;;;;;;;;23.65;57.95;102331.78;5063111;28;20370;-45
2023/08/21 06:51:36;;;;;;;;;;;;;;;23.65;58.08;102339.91;5062008;28;19974;-49
2023/08/21 06:54:02;;;;;;;;;;;;;;;23.65;58.02;102334.50;5059522;28;19928;-51
2023/08/21 06:56:27;;;;;;;;;;;;;;;23.65;58.15;102344.50;5061560;28;19939;-47
2023/08/21 06:58:54;;;;;;;;;;;;;;;23.65;57.94;102342.63;5059957;28;19923;-47
2023/08/21 07:01:20;;;;;;;;;;;;;;;23.65;58.00;102341.78;5062005;28;20659;-45
2023/08/21 07:03:45;;;;;;;;;;;;;;;23.65;57.89;102345.34;5060341;28;19976;-46
2023/08/21 07:06:10;;;;;;;;;;;;;;;23.65;57.92;102345.34;5062967;28;19920;-49
2023/08/21 07:08:37;;;;;;;;;;;;;;;23.64;57.76;102335.47;5060229;28;19924;-47
2023/08/21 07:11:04;;;;;;;;;;;;;;;23.64;58.08;102340.91;5058306;28;20405;-50
2023/08/21 07:13:29;;;;;;;;;;;;;;;23.63;57.97;102331.06;5058724;28;20437;-47
2023/08/21 07:15:55;;;;;;;;;;;;;;;23.63;58.14;102336.50;5059494;28;19927;-46
2023/08/21 07:18:20;;;;;;;;;;;;;;;23.64;58.15;102349.06;5058964;28;19944;-47
2023/08/21 07:20:45;;;;;;;;;;;;;;;23.64;58.04;102342.78;5062588;28;20003;-47
2023/08/21 07:23:10;;;;;;;;;;;;;;;23.63;58.03;102341.94;5062717;28;19971;-49
2023/08/21 07:25:36;;;;;;;;;;;;;;;23.63;58.25;102341.09;5061544;28;20003;-46
2023/08/21 07:28:01;;;;;;;;;;;;;;;23.63;58.11;102347.38;5093670;28;20396;-44
2023/08/21 07:30:27;;;;;;;;;;;;;;;23.64;58.13;102345.50;5057445;28;19916;-47
2023/08/21 07:32:52;;;;;;;;;;;;;;;23.63;58.23;102344.66;5060738;28;19922;-48
2023/08/21 07:35:17;;;;;;;;;;;;;;;23.63;58.21;102339.22;5061296;28;19920;-46
2023/08/21 07:37:46;;;;;;;;;;;;;;;23.63;58.20;102343.81;5061892;28;20023;-46
2023/08/21 07:40:11;;;;;;;;;;;;;;;23.63;58.15;102344.66;5060583;28;19923;-50
2023/08/21 07:42:36;;;;;;;;;;;;;;;23.63;58.16;102343.81;5060707;28;19925;-48
2023/08/21 07:45:02;;;;;;;;;;;;;;;23.64;57.98;102342.78;5060401;28;19932;-47
2023/08/21 07:47:27;;;;;;;;;;;;;;;23.63;58.16;102341.09;5061053;28;19953;-48
2023/08/21 07:49:53;;;;;;;;;;;;;;;23.64;58.01;102348.22;5062043;28;19977;-45
2023/08/21 07:52:18;;;;;;;;;;;;;;;23.64;58.05;102353.66;5059317;28;19967;-44
2023/08/21 07:54:43;;;;;;;;;;;;;;;23.63;58.13;102347.38;5062392;28;19928;-47
2023/08/21 07:57:08;;;;;;;;;;;;;;;23.63;58.08;102351.94;5061018;28;19934;-49
2023/08/21 07:59:33;;;;;;;;;;;;;;;23.64;57.90;102359.06;5058921;28;19917;-46
2023/08/21 08:02:00;;;;;;;;;;;;;;;23.63;57.70;102351.94;5057000;28;19916;-48
2023/08/21 08:04:25;;;;;;;;;;;;;;;23.63;57.98;102357.38;5060079;28;19919;-46
2023/08/21 08:06:50;;;;;;;;;;;;;;;23.62;57.98;102358.41;5060376;28;20007;-47
2023/08/21 08:09:15;;;;;;;;;;;;;;;23.63;58.18;102362.81;5061585;28;19924;-47
2023/08/21 08:11:41;;;;;;;;;;;;;;;23.63;57.87;102362.81;5057712;28;19921;-45
2023/08/21 08:14:06;;;;;;;;;;;;;;;23.63;57.99;102354.66;5060852;28;19917;-46
2023/08/21 08:16:31;;;;;;;;;;;;;;;23.63;57.92;102360.94;5058572;28;19913;-46
2023/08/21 08:18:58;;;;;;;;;;;;;;;23.62;58.03;102356.53;5059836;28;20362;-49
2023/08/21 08:21:23;;;;;;;;;;;;;;;23.61;58.09;102354.81;5060542;28;19917;-45
2023/08/21 08:23:48;;;;;;;;;;;;;;;23.61;57.99;102353.97;5058553;28;19952;-48
2023/08/21 08:26:13;;;;;;;;;;;;;;;23.63;57.96;102357.38;5060069;28;19978;-45
2023/08/21 08:28:39;;;;;;;;;;;;;;;23.62;58.15;102350.25;5061718;28;19955;-49
2023/08/21 08:31:04;;;;;;;;;;;;;;;23.62;58.04;102356.53;5064703;28;19995;-49
2023/08/21 08:33:29;;;;;;;;;;;;;;;23.63;58.05;102357.38;5064561;28;19921;-45
2023/08/21 08:35:54;;;;;;;;;;;;;;;23.64;58.05;102361.78;5061420;28;19918;-45
2023/08/21 08:38:20;;;;;;;;;;;;;;;23.63;58.14;102368.25;5062540;28;19928;-44
2023/08/21 08:40:45;;;;;;;;;;;;;;;23.63;58.15;102366.38;5065659;28;19916;-46
2023/08/21 08:43:11;;;;;;;;;;;;;;;23.62;57.88;102370.13;5065239;28;19917;-43
2023/08/21 08:45:36;;;;;;;;;;;;;;;23.63;58.08;102366.38;5066489;28;19913;-45
2023/08/21 08:48:02;;;;;;;;;;;;;;;23.63;57.93;102363.66;5066466;28;19913;-46
2023/08/21 08:50:30;;;;;;;;;;;;;;;23.63;57.84;102349.25;5064399;28;19920;-49
2023/08/21 08:52:55;;;;;;;;;;;;;;;23.64;58.08;102353.66;5066876;28;19922;-44
2023/08/21 08:55:21;;;;;;;;;;;;;;;23.64;57.95;102353.66;5098565;28;19917;-45
2023/08/21 08:57:46;;;;;;;;;;;;;;;23.64;57.95;102359.91;5066804;28;19947;-44
2023/08/21 09:00:11;;;;;;;;;;;;;;;23.64;57.84;102362.63;5065151;28;19917;-45
2023/08/21 09:02:37;;;;;;;;;;;;;;;23.64;57.88;102357.22;5066598;28;19935;-49
2023/08/21 09:05:04;;;;;;;;;;;;;;;23.64;58.07;102359.91;5065779;28;19912;-43
2023/08/21 09:07:29;;;;;;;;;;;;;;;23.65;57.87;102367.06;5066531;28;19970;-44
2023/08/21 09:09:55;;;;;;;;;;;;;;;23.64;57.82;102356.34;5066259;28;19913;-49
2023/08/21 09:12:20;;;;;;;;;;;;;;;23.64;57.96;102359.91;5065975;28;20050;-46
2023/08/21 09:14:45;;;;;;;;;;;;;;;23.65;57.92;102360.81;5065814;28;20690;-49
2023/08/21 09:17:11;;;;;;;;;;;;;;;23.65;57.96;102358.09;5064270;28;19919;-47
2023/08/21 09:19:36;;;;;;;;;;;;;;;23.66;58.01;102357.94;5065797;28;19920;-45
2023/08/21 09:22:28;;;;;;;;;;;;;;;23.65;58.20;102353.50;5065953;28;19948;-44
2023/08/21 09:25:07;;;;;;;;;;;;;;;23.66;57.93;102357.94;5045769;28;19921;-46
2023/08/21 09:27:35;;;;;;;;;;;;;;;23.66;58.00;102346.19;5045767;28;19917;-49
2023/08/21 09:30:02;;;;;;;;;;;;;;;23.66;58.09;102348.91;5058714;28;19925;-46
2023/08/21 09:32:27;;;;;;;;;;;;;;;23.66;58.12;102355.22;5061129;28;19917;-43
2023/08/21 09:34:52;;;;;;;;;;;;;;;23.66;58.27;102347.06;5045448;28;19917;-44
2023/08/21 09:37:17;;;;;;;;;;;;;;;23.67;58.17;102348.78;5045435;28;19923;-44
2023/08/21 09:39:44;;;;;;;;;;;;;;;23.67;58.20;102356.06;5045983;28;20015;-43
2023/08/21 09:42:09;;;;;;;;;;;;;;;23.67;58.18;102354.19;5044668;28;20007;-45
2023/08/21 09:44:38;;;;;;;;;;;;;;;23.68;58.33;102364.03;5045898;28;19921;-46
2023/08/21 09:47:04;;;;;;;;;;;;;;;23.68;58.29;102355.91;5043075;28;19924;-48
2023/08/21 09:49:29;;;;;;;;;;;;;;;23.69;58.20;102354.03;5060806;28;19913;-43
2023/08/21 09:51:54;;;;;;;;;;;;;;;23.69;58.16;102356.75;5045722;28;19914;-46
2023/08/21 09:54:19;;;;;;;;;;;;;;;23.70;58.28;102355.72;5060827;28;19925;-44
2023/08/21 09:56:45;;;;;;;;;;;;;;;23.72;58.12;102355.56;5045490;28;19963;-44
2023/08/21 09:59:10;;;;;;;;;;;;;;;23.72;58.33;102345.56;5060751;28;19925;-44
2023/08/21 10:01:35;;;;;;;;;;;;;;;23.73;58.34;102340.97;5044613;28;19913;-44
2023/08/21 10:04:02;;;;;;;;;;;;;;;23.75;58.22;102344.38;5023953;28;19936;-46
2023/08/21 10:06:28;;;;;;;;;;;;;;;23.75;58.26;102334.38;5028978;28;20357;-45
2023/08/21 10:08:54;;;;;;;;;;;;;;;23.77;58.20;102331.47;5024334;28;20412;-45
2023/08/21 10:11:20;;;;;;;;;;;;;;;23.78;58.19;102327.72;5041082;28;20411;-46
2023/08/21 10:13:45;;;;;;;;;;;;;;;23.79;58.23;102334.84;5042850;28;19976;-48
2023/08/21 10:16:11;;;;;;;;;;;;;;;23.80;58.18;102326.56;5024630;28;19952;-43
2023/08/21 10:18:36;;;;;;;;;;;;;;;23.80;58.09;102332.00;5056242;28;19917;-46
2023/08/21 10:21:11;;;;;;;;;;;;;;;23.79;58.22;102324.88;5041701;28;19976;-44
2023/08/21 10:23:36;;;;;;;;;;;;;;;23.80;58.54;102320.28;5054051;28;19925;-45
2023/08/21 10:26:03;;;;;;;;;;;;;;;23.81;58.73;102320.09;5063163;28;19924;-50
2023/08/21 10:28:47;;;;;;;;;;;;;;;23.84;59.02;102318.94;5095419;28;20016;-44
2023/08/21 10:31:31;;;;;;;;;;;;;;;23.85;59.35;102316.03;5058992;28;19925;-47
2023/08/21 10:33:56;;;;;;;;;;;;;;;23.86;59.23;102306.88;5060260;28;20042;-46
2023/08/21 10:37:00;;;;;;;;;;;;;;;23.86;59.25;102306.88;5060866;28;20070;-48
2023/08/21 10:39:26;;;;;;;;;;;;;;;23.87;59.26;102318.59;5060112;28;19917;-45
2023/08/21 10:41:57;;;;;;;;;;;;;;;23.86;59.19;102312.31;5061299;28;19920;-50
2023/08/21 10:44:38;;;;;;;;;;;;;;;23.84;59.25;102308.91;5057490;28;19916;-47
2023/08/21 10:47:30;;;;;;;;;;;;;;;23.83;59.20;102312.66;5060596;28;19924;-47
2023/08/21 10:49:56;;;;;;;;;;;;;;;23.82;59.28;102313.66;5059198;28;19924;-46
2023/08/21 10:52:25;;;;;;;;;;;;;;;23.82;59.35;102320.97;5060801;28;19913;-46
2023/08/21 10:54:51;;;;;;;;;;;;;;;23.81;59.55;102311.97;5062311;28;19921;-49
2023/08/21 10:57:17;;;;;;;;;;;;;;;23.80;59.58;102321.13;5062908;28;19913;-51
2023/08/21 11:00:03;;;;;;;;;;;;;;;23.80;59.63;102323.84;5061392;28;19921;-46
2023/08/21 11:02:29;;;;;;;;;;;;;;;23.80;59.67;102323.84;5062530;28;19916;-49
2023/08/21 11:04:54;;;;;;;;;;;;;;;23.81;59.60;102328.25;5062100;28;19923;-47
2023/08/21 11:07:20;;;;;;;;;;;;;;;23.81;59.56;102319.25;5061186;28;19956;-46
2023/08/21 11:09:46;;;;;;;;;;;;;;;23.20;59.47;102231.72;5062761;28;19980;-46
2023/08/21 11:12:12;;;;;;;;;;;;;;;23.80;59.85;102328.44;5094642;28;19939;-46
2023/08/21 11:14:37;;;;;;;;;;;;;;;23.80;59.84;102329.28;5062448;28;19927;-48
2023/08/21 11:17:03;;;;;;;;;;;;;;;23.81;59.85;102325.53;5061422;28;19960;-46
2023/08/21 11:19:31;;;;;;;;;;;;;;;23.82;59.98;102329.09;5062575;28;20279;-49
2023/08/21 11:21:59;;;;;;;;;;;;;;;23.81;59.85;102328.25;5063358;28;19962;-48
2023/08/21 11:24:29;;;;;;;;;;;;;;;23.81;60.00;102325.53;5061900;28;19921;-47
2023/08/21 11:26:54;;;;;;;;;;;;;;;23.80;59.79;102334.72;5061043;28;19912;-48
2023/08/21 11:29:19;;;;;;;;;;;;;;;23.81;59.96;102324.69;5062245;28;19923;-49
2023/08/21 11:31:47;;;;;;;;;;;;;;;23.80;60.04;102325.72;5094574;28;19924;-49
2023/08/21 11:34:17;;;;;;;;;;;;;;;23.81;59.75;102321.97;5061878;28;19916;-46
2023/08/21 11:36:43;;;;;;;;;;;;;;;23.80;59.93;102315.69;5062366;28;19912;-44
2023/08/21 11:39:08;;;;;;;;;;;;;;;23.80;60.08;102318.41;5062589;28;19920;-46
2023/08/21 11:41:52;;;;;;;;;;;;;;;23.81;60.14;102313.84;5062045;28;19913;-46
2023/08/21 11:44:17;;;;;;;;;;;;;;;23.81;60.20;102300.25;5060078;28;19928;-49
2023/08/21 11:46:42;;;;;;;;;;;;;;;23.81;60.28;102295.66;5059791;28;19912;-46
2023/08/21 11:49:07;;;;;;;;;;;;;;;23.82;60.15;102304.66;5061479;28;19909;-45
2023/08/21 11:51:37;;;;;;;;;;;;;;;23.83;60.21;102303.63;5061333;28;20046;-49
2023/08/21 11:54:03;;;;;;;;;;;;;;;23.83;60.30;102298.19;5062092;28;19920;-46
2023/08/21 11:56:29;;;;;;;;;;;;;;;23.83;60.22;102293.66;5093900;28;19921;-47
2023/08/21 11:58:54;;;;;;;;;;;;;;;23.85;60.28;102296.19;5060805;28;19917;-47
2023/08/21 12:01:19;;;;;;;;;;;;;;;23.85;60.39;102291.59;5061089;28;20861;-46
2023/08/21 12:03:45;;;;;;;;;;;;;;;23.87;60.08;102292.28;5094556;28;19923;-48
2023/08/21 12:06:11;;;;;;;;;;;;;;;23.89;60.22;102289.41;5066497;28;19924;-46
2023/08/21 12:08:36;;;;;;;;;;;;;;;23.89;60.15;102283.97;5065220;28;19932;-50
2023/08/21 12:11:02;;;;;;;;;;;;;;;23.90;60.21;102286.50;5064918;28;19972;-47
2023/08/21 12:13:27;;;;;;;;;;;;;;;23.92;60.13;102287.19;5063622;28;19936;-47
2023/08/21 12:15:52;;;;;;;;;;;;;;;23.91;59.99;102284.63;5067011;28;19923;-45
2023/08/21 12:18:17;;;;;;;;;;;;;;;23.90;59.98;102281.06;5065412;28;19916;-45
2023/08/21 12:20:43;;;;;;;;;;;;;;;23.90;59.71;102277.50;5065602;28;19967;-47
2023/08/21 12:23:08;;;;;;;;;;;;;;;23.90;59.91;102267.50;5066217;28;19929;-45
2023/08/21 12:25:33;;;;;;;;;;;;;;;23.91;59.97;102268.34;5066959;28;20392;-44
2023/08/21 12:27:58;;;;;;;;;;;;;;;23.92;59.76;102275.50;5066510;28;19913;-45
2023/08/21 12:30:25;;;;;;;;;;;;;;;23.93;59.91;102280.75;5065509;28;19943;-46